Terminal Aerodrome Forecast
Issued by NWS Atlanta, GA

Home | Current Version | Previous Version | Text Only | Print | Product List | Glossary On
Versions: 1 2 3 4 5 6 7 8 9 10 11 12 13 14 15
000
FTUS42 KFFC 271743
TAFMCN
TAF
KMCN 271743Z 2718/2818 15007KT P6SM BKN100
     FM272200 14005KT P6SM VCSH SCT050 BKN100
     FM280100 09005KT 6SM -SHRA BKN035 OVC060
     FM280500 08004KT 5SM BR VCSH BKN020
     FM280800 08004KT 4SM BR BKN009
     FM281700 14010KT P6SM VCSH BKN025=

USA.gov is the U.S. government's official web portal to all federal, state and local government web resources and services.